sensor_id;sensor_type;location;lat;lon;timestamp;P1;durP1;ratioP1;P2;durP2;ratioP2
36411;SDS011;22445;52.100;5.176;2023-06-14T00:00:58;3.85;;;2.20;;
36411;SDS011;22445;52.100;5.176;2023-06-14T00:03:23;3.60;;;2.08;;
36411;SDS011;22445;52.100;5.176;2023-06-14T00:05:49;3.20;;;1.75;;
36411;SDS011;22445;52.100;5.176;2023-06-14T00:08:15;5.50;;;2.33;;
36411;SDS011;22445;52.100;5.176;2023-06-14T00:10:41;5.43;;;2.10;;
36411;SDS011;22445;52.100;5.176;2023-06-14T00:13:07;6.45;;;2.55;;
36411;SDS011;22445;52.100;5.176;2023-06-14T00:15:34;0.00;;;0.00;;
36411;SDS011;22445;52.100;5.176;2023-06-14T00:18:00;0.10;;;0.10;;
36411;SDS011;22445;52.100;5.176;2023-06-14T00:20:26;0.00;;;0.00;;
36411;SDS011;22445;52.100;5.176;2023-06-14T00:22:53;0.00;;;0.00;;
36411;SDS011;22445;52.100;5.176;2023-06-14T00:25:20;3.00;;;1.52;;
36411;SDS011;22445;52.100;5.176;2023-06-14T00:27:47;6.78;;;2.47;;
36411;SDS011;22445;52.100;5.176;2023-06-14T00:30:13;4.72;;;2.05;;
36411;SDS011;22445;52.100;5.176;2023-06-14T00:32:39;5.85;;;2.42;;
36411;SDS011;22445;52.100;5.176;2023-06-14T00:35:04;5.30;;;2.33;;
36411;SDS011;22445;52.100;5.176;2023-06-14T00:37:30;5.63;;;2.08;;
36411;SDS011;22445;52.100;5.176;2023-06-14T00:39:55;3.20;;;2.38;;
36411;SDS011;22445;52.100;5.176;2023-06-14T00:42:24;4.45;;;2.13;;
36411;SDS011;22445;52.100;5.176;2023-06-14T00:44:51;5.40;;;2.38;;
36411;SDS011;22445;52.100;5.176;2023-06-14T00:47:16;3.65;;;2.22;;
36411;SDS011;22445;52.100;5.176;2023-06-14T00:49:42;2.58;;;1.85;;
36411;SDS011;22445;52.100;5.176;2023-06-14T00:52:09;7.18;;;2.28;;
36411;SDS011;22445;52.100;5.176;2023-06-14T00:54:40;7.97;;;2.33;;
36411;SDS011;22445;52.100;5.176;2023-06-14T00:57:07;3.38;;;2.13;;
36411;SDS011;22445;52.100;5.176;2023-06-14T00:59:33;4.07;;;1.88;;
36411;SDS011;22445;52.100;5.176;2023-06-14T01:02:00;5.22;;;2.25;;
36411;SDS011;22445;52.100;5.176;2023-06-14T01:04:25;7.47;;;1.95;;
36411;SDS011;22445;52.100;5.176;2023-06-14T01:12:50;3.10;;;1.85;;
36411;SDS011;22445;52.100;5.176;2023-06-14T01:15:38;6.40;;;1.92;;
36411;SDS011;22445;52.100;5.176;2023-06-14T01:18:05;2.50;;;2.17;;
36411;SDS011;22445;52.100;5.176;2023-06-14T01:20:31;5.00;;;2.15;;
36411;SDS011;22445;52.100;5.176;2023-06-14T01:22:58;3.10;;;2.08;;
36411;SDS011;22445;52.100;5.176;2023-06-14T01:25:24;5.45;;;2.38;;
36411;SDS011;22445;52.100;5.176;2023-06-14T01:27:53;8.55;;;2.25;;
36411;SDS011;22445;52.100;5.176;2023-06-14T01:30:21;3.60;;;1.83;;
36411;SDS011;22445;52.100;5.176;2023-06-14T01:32:48;3.65;;;1.95;;
36411;SDS011;22445;52.100;5.176;2023-06-14T01:35:15;2.22;;;1.67;;
36411;SDS011;22445;52.100;5.176;2023-06-14T01:37:41;2.83;;;1.88;;
36411;SDS011;22445;52.100;5.176;2023-06-14T01:40:08;5.47;;;1.75;;
36411;SDS011;22445;52.100;5.176;2023-06-14T01:42:36;5.40;;;2.30;;
36411;SDS011;22445;52.100;5.176;2023-06-14T01:45:04;2.88;;;1.48;;
36411;SDS011;22445;52.100;5.176;2023-06-14T01:47:30;3.72;;;1.83;;
36411;SDS011;22445;52.100;5.176;2023-06-14T01:49:57;5.57;;;1.58;;
36411;SDS011;22445;52.100;5.176;2023-06-14T01:52:23;2.28;;;1.95;;
36411;SDS011;22445;52.100;5.176;2023-06-14T01:54:49;4.32;;;2.13;;
36411;SDS011;22445;52.100;5.176;2023-06-14T01:57:15;2.33;;;1.92;;
36411;SDS011;22445;52.100;5.176;2023-06-14T01:59:41;3.58;;;2.30;;
36411;SDS011;22445;52.100;5.176;2023-06-14T02:02:07;3.03;;;2.00;;
36411;SDS011;22445;52.100;5.176;2023-06-14T02:04:32;3.53;;;2.10;;
36411;SDS011;22445;52.100;5.176;2023-06-14T02:06:58;9.65;;;2.30;;
36411;SDS011;22445;52.100;5.176;2023-06-14T02:09:24;3.17;;;2.10;;
36411;SDS011;22445;52.100;5.176;2023-06-14T02:11:50;6.47;;;2.42;;
36411;SDS011;22445;52.100;5.176;2023-06-14T02:14:15;4.15;;;2.45;;
36411;SDS011;22445;52.100;5.176;2023-06-14T02:16:42;3.35;;;2.30;;
36411;SDS011;22445;52.100;5.176;2023-06-14T02:19:14;3.05;;;2.15;;
36411;SDS011;22445;52.100;5.176;2023-06-14T02:21:41;6.20;;;2.15;;
36411;SDS011;22445;52.100;5.176;2023-06-14T02:24:07;2.97;;;1.80;;
36411;SDS011;22445;52.100;5.176;2023-06-14T02:26:33;4.72;;;1.83;;
36411;SDS011;22445;52.100;5.176;2023-06-14T02:28:59;6.03;;;1.92;;
36411;SDS011;22445;52.100;5.176;2023-06-14T02:31:25;5.32;;;2.38;;
36411;SDS011;22445;52.100;5.176;2023-06-14T02:33:50;4.65;;;2.22;;
36411;SDS011;22445;52.100;5.176;2023-06-14T02:36:16;5.82;;;1.85;;
36411;SDS011;22445;52.100;5.176;2023-06-14T02:38:42;3.30;;;1.83;;
36411;SDS011;22445;52.100;5.176;2023-06-14T02:41:07;7.35;;;2.20;;
36411;SDS011;22445;52.100;5.176;2023-06-14T02:43:33;4.80;;;1.65;;
36411;SDS011;22445;52.100;5.176;2023-06-14T02:45:58;7.15;;;1.60;;
36411;SDS011;22445;52.100;5.176;2023-06-14T02:48:24;10.02;;;2.30;;
36411;SDS011;22445;52.100;5.176;2023-06-14T02:50:49;2.47;;;1.90;;
36411;SDS011;22445;52.100;5.176;2023-06-14T02:53:16;5.80;;;2.05;;
36411;SDS011;22445;52.100;5.176;2023-06-14T02:55:42;3.85;;;2.30;;
36411;SDS011;22445;52.100;5.176;2023-06-14T02:58:08;5.80;;;1.70;;
36411;SDS011;22445;52.100;5.176;2023-06-14T03:00:33;5.20;;;2.05;;
36411;SDS011;22445;52.100;5.176;2023-06-14T03:03:00;7.10;;;2.13;;
36411;SDS011;22445;52.100;5.176;2023-06-14T03:05:27;3.78;;;1.80;;
36411;SDS011;22445;52.100;5.176;2023-06-14T03:07:53;2.05;;;1.65;;
36411;SDS011;22445;52.100;5.176;2023-06-14T03:10:19;4.32;;;2.15;;
36411;SDS011;22445;52.100;5.176;2023-06-14T03:12:45;7.80;;;1.90;;
36411;SDS011;22445;52.100;5.176;2023-06-14T03:15:12;7.28;;;1.95;;
36411;SDS011;22445;52.100;5.176;2023-06-14T03:17:38;5.93;;;2.10;;
36411;SDS011;22445;52.100;5.176;2023-06-14T03:20:04;8.15;;;2.20;;
36411;SDS011;22445;52.100;5.176;2023-06-14T03:22:30;6.35;;;2.08;;
36411;SDS011;22445;52.100;5.176;2023-06-14T03:24:59;4.03;;;1.70;;
36411;SDS011;22445;52.100;5.176;2023-06-14T03:27:25;2.80;;;1.60;;
36411;SDS011;22445;52.100;5.176;2023-06-14T03:29:53;4.32;;;2.28;;
36411;SDS011;22445;52.100;5.176;2023-06-14T03:32:19;4.10;;;1.65;;
36411;SDS011;22445;52.100;5.176;2023-06-14T03:34:45;5.28;;;2.17;;
36411;SDS011;22445;52.100;5.176;2023-06-14T03:37:10;2.22;;;1.58;;
36411;SDS011;22445;52.100;5.176;2023-06-14T03:39:36;2.25;;;1.55;;
36411;SDS011;22445;52.100;5.176;2023-06-14T03:42:01;6.75;;;2.25;;
36411;SDS011;22445;52.100;5.176;2023-06-14T03:44:27;3.80;;;1.80;;
36411;SDS011;22445;52.100;5.176;2023-06-14T03:46:53;2.50;;;1.92;;
36411;SDS011;22445;52.100;5.176;2023-06-14T03:49:18;4.90;;;2.10;;
36411;SDS011;22445;52.100;5.176;2023-06-14T03:51:44;3.10;;;2.00;;
36411;SDS011;22445;52.100;5.176;2023-06-14T03:54:10;6.00;;;2.00;;
36411;SDS011;22445;52.100;5.176;2023-06-14T03:56:35;2.70;;;2.15;;
36411;SDS011;22445;52.100;5.176;2023-06-14T03:59:01;4.60;;;2.33;;
36411;SDS011;22445;52.100;5.176;2023-06-14T04:01:27;4.47;;;2.45;;
36411;SDS011;22445;52.100;5.176;2023-06-14T04:03:55;2.33;;;2.00;;
36411;SDS011;22445;52.100;5.176;2023-06-14T04:06:22;5.38;;;2.38;;
36411;SDS011;22445;52.100;5.176;2023-06-14T04:08:50;5.18;;;1.95;;
36411;SDS011;22445;52.100;5.176;2023-06-14T04:11:17;3.65;;;2.17;;
36411;SDS011;22445;52.100;5.176;2023-06-14T04:13:44;6.38;;;2.00;;
36411;SDS011;22445;52.100;5.176;2023-06-14T04:16:09;6.03;;;2.10;;
36411;SDS011;22445;52.100;5.176;2023-06-14T04:18:35;3.83;;;2.45;;
36411;SDS011;22445;52.100;5.176;2023-06-14T04:21:00;3.75;;;1.98;;
36411;SDS011;22445;52.100;5.176;2023-06-14T04:23:27;2.88;;;1.88;;
36411;SDS011;22445;52.100;5.176;2023-06-14T04:25:53;4.18;;;2.05;;
36411;SDS011;22445;52.100;5.176;2023-06-14T04:28:19;6.40;;;2.17;;
36411;SDS011;22445;52.100;5.176;2023-06-14T04:30:44;6.63;;;2.55;;
36411;SDS011;22445;52.100;5.176;2023-06-14T04:33:12;3.53;;;2.25;;
36411;SDS011;22445;52.100;5.176;2023-06-14T04:35:38;3.05;;;2.22;;
36411;SDS011;22445;52.100;5.176;2023-06-14T04:38:05;3.88;;;2.17;;
36411;SDS011;22445;52.100;5.176;2023-06-14T04:40:34;4.07;;;1.83;;
36411;SDS011;22445;52.100;5.176;2023-06-14T04:43:08;2.70;;;1.83;;
36411;SDS011;22445;52.100;5.176;2023-06-14T04:45:37;3.42;;;1.98;;
36411;SDS011;22445;52.100;5.176;2023-06-14T04:48:05;4.43;;;2.22;;
36411;SDS011;22445;52.100;5.176;2023-06-14T04:50:31;2.75;;;1.65;;
36411;SDS011;22445;52.100;5.176;2023-06-14T04:52:58;3.50;;;2.17;;
36411;SDS011;22445;52.100;5.176;2023-06-14T04:55:24;4.93;;;2.30;;
36411;SDS011;22445;52.100;5.176;2023-06-14T04:57:51;4.35;;;2.13;;
36411;SDS011;22445;52.100;5.176;2023-06-14T05:00:19;2.35;;;1.90;;
36411;SDS011;22445;52.100;5.176;2023-06-14T05:02:45;5.45;;;2.10;;
36411;SDS011;22445;52.100;5.176;2023-06-14T05:05:12;4.82;;;2.25;;
36411;SDS011;22445;52.100;5.176;2023-06-14T05:07:38;4.65;;;1.83;;
36411;SDS011;22445;52.100;5.176;2023-06-14T05:10:04;2.63;;;1.67;;
36411;SDS011;22445;52.100;5.176;2023-06-14T05:12:31;4.82;;;2.05;;
36411;SDS011;22445;52.100;5.176;2023-06-14T05:14:56;6.43;;;2.53;;
36411;SDS011;22445;52.100;5.176;2023-06-14T05:17:23;5.60;;;1.83;;
36411;SDS011;22445;52.100;5.176;2023-06-14T05:19:49;6.13;;;2.00;;
36411;SDS011;22445;52.100;5.176;2023-06-14T05:22:14;4.38;;;2.08;;
36411;SDS011;22445;52.100;5.176;2023-06-14T05:24:40;3.03;;;1.83;;
36411;SDS011;22445;52.100;5.176;2023-06-14T05:27:06;4.97;;;1.98;;
36411;SDS011;22445;52.100;5.176;2023-06-14T05:29:32;6.55;;;2.20;;
36411;SDS011;22445;52.100;5.176;2023-06-14T05:31:58;6.88;;;2.47;;
36411;SDS011;22445;52.100;5.176;2023-06-14T05:34:23;7.07;;;2.30;;
36411;SDS011;22445;52.100;5.176;2023-06-14T05:36:49;5.53;;;1.80;;
36411;SDS011;22445;52.100;5.176;2023-06-14T05:39:14;3.17;;;2.10;;
36411;SDS011;22445;52.100;5.176;2023-06-14T05:41:40;3.53;;;1.98;;
36411;SDS011;22445;52.100;5.176;2023-06-14T05:44:06;5.30;;;2.20;;
36411;SDS011;22445;52.100;5.176;2023-06-14T05:46:32;5.45;;;2.10;;
36411;SDS011;22445;52.100;5.176;2023-06-14T05:48:58;8.50;;;2.42;;
36411;SDS011;22445;52.100;5.176;2023-06-14T05:51:24;5.70;;;2.08;;
36411;SDS011;22445;52.100;5.176;2023-06-14T05:53:50;6.85;;;2.10;;
36411;SDS011;22445;52.100;5.176;2023-06-14T05:56:16;3.90;;;1.90;;
36411;SDS011;22445;52.100;5.176;2023-06-14T05:58:45;3.78;;;2.17;;
36411;SDS011;22445;52.100;5.176;2023-06-14T06:01:11;4.30;;;2.13;;
36411;SDS011;22445;52.100;5.176;2023-06-14T06:03:38;5.22;;;1.92;;
36411;SDS011;22445;52.100;5.176;2023-06-14T06:06:04;9.10;;;3.78;;
36411;SDS011;22445;52.100;5.176;2023-06-14T06:08:29;4.68;;;2.17;;
36411;SDS011;22445;52.100;5.176;2023-06-14T06:10:56;8.05;;;2.03;;
36411;SDS011;22445;52.100;5.176;2023-06-14T06:13:22;3.17;;;1.75;;
36411;SDS011;22445;52.100;5.176;2023-06-14T06:15:50;3.85;;;1.85;;
36411;SDS011;22445;52.100;5.176;2023-06-14T06:18:16;8.73;;;3.00;;
36411;SDS011;22445;52.100;5.176;2023-06-14T06:20:42;20.40;;;3.17;;
36411;SDS011;22445;52.100;5.176;2023-06-14T06:23:09;12.75;;;2.58;;
36411;SDS011;22445;52.100;5.176;2023-06-14T06:25:35;4.55;;;2.10;;
36411;SDS011;22445;52.100;5.176;2023-06-14T06:28:00;4.40;;;2.42;;
36411;SDS011;22445;52.100;5.176;2023-06-14T06:30:26;4.22;;;1.95;;
36411;SDS011;22445;52.100;5.176;2023-06-14T06:32:52;5.50;;;1.60;;
36411;SDS011;22445;52.100;5.176;2023-06-14T06:35:18;0.00;;;0.00;;
36411;SDS011;22445;52.100;5.176;2023-06-14T06:37:43;3.92;;;1.92;;
36411;SDS011;22445;52.100;5.176;2023-06-14T06:40:09;2.80;;;1.30;;
36411;SDS011;22445;52.100;5.176;2023-06-14T06:42:35;0.00;;;0.00;;
36411;SDS011;22445;52.100;5.176;2023-06-14T06:45:01;0.47;;;0.43;;
36411;SDS011;22445;52.100;5.176;2023-06-14T06:47:27;0.10;;;0.10;;
36411;SDS011;22445;52.100;5.176;2023-06-14T06:49:53;1.65;;;0.10;;
36411;SDS011;22445;52.100;5.176;2023-06-14T06:52:19;0.00;;;0.00;;
36411;SDS011;22445;52.100;5.176;2023-06-14T06:54:45;0.00;;;0.00;;
36411;SDS011;22445;52.100;5.176;2023-06-14T06:57:10;0.00;;;0.00;;
36411;SDS011;22445;52.100;5.176;2023-06-14T06:59:36;0.00;;;0.00;;
36411;SDS011;22445;52.100;5.176;2023-06-14T07:02:02;0.00;;;0.00;;
36411;SDS011;22445;52.100;5.176;2023-06-14T07:04:28;0.00;;;0.00;;
36411;SDS011;22445;52.100;5.176;2023-06-14T07:06:54;0.00;;;0.00;;
36411;SDS011;22445;52.100;5.176;2023-06-14T07:09:19;0.00;;;0.00;;
36411;SDS011;22445;52.100;5.176;2023-06-14T07:11:46;0.43;;;0.43;;
36411;SDS011;22445;52.100;5.176;2023-06-14T07:14:12;0.00;;;0.00;;
36411;SDS011;22445;52.100;5.176;2023-06-14T07:16:38;0.00;;;0.00;;
36411;SDS011;22445;52.100;5.176;2023-06-14T07:19:03;0.00;;;0.00;;
36411;SDS011;22445;52.100;5.176;2023-06-14T07:21:29;0.00;;;0.00;;
36411;SDS011;22445;52.100;5.176;2023-06-14T07:23:55;0.00;;;0.00;;
36411;SDS011;22445;52.100;5.176;2023-06-14T07:26:21;0.00;;;0.00;;
36411;SDS011;22445;52.100;5.176;2023-06-14T07:28:48;0.00;;;0.00;;
36411;SDS011;22445;52.100;5.176;2023-06-14T07:31:14;0.00;;;0.00;;
36411;SDS011;22445;52.100;5.176;2023-06-14T07:33:41;0.00;;;0.00;;
36411;SDS011;22445;52.100;5.176;2023-06-14T07:36:07;0.00;;;0.00;;
36411;SDS011;22445;52.100;5.176;2023-06-14T07:38:33;0.93;;;0.90;;
36411;SDS011;22445;52.100;5.176;2023-06-14T07:40:59;0.00;;;0.00;;
36411;SDS011;22445;52.100;5.176;2023-06-14T07:43:25;0.00;;;0.00;;
36411;SDS011;22445;52.100;5.176;2023-06-14T07:45:51;0.00;;;0.00;;
36411;SDS011;22445;52.100;5.176;2023-06-14T07:48:16;0.00;;;0.00;;
36411;SDS011;22445;52.100;5.176;2023-06-14T07:50:42;0.00;;;0.00;;
36411;SDS011;22445;52.100;5.176;2023-06-14T07:53:08;0.00;;;0.00;;
36411;SDS011;22445;52.100;5.176;2023-06-14T07:55:33;0.00;;;0.00;;
36411;SDS011;22445;52.100;5.176;2023-06-14T07:58:02;0.00;;;0.00;;
36411;SDS011;22445;52.100;5.176;2023-06-14T08:00:28;0.10;;;0.10;;
36411;SDS011;22445;52.100;5.176;2023-06-14T08:02:53;0.00;;;0.00;;
36411;SDS011;22445;52.100;5.176;2023-06-14T08:05:24;0.00;;;0.00;;
36411;SDS011;22445;52.100;5.176;2023-06-14T08:07:49;0.00;;;0.00;;
36411;SDS011;22445;52.100;5.176;2023-06-14T08:10:15;0.00;;;0.00;;
36411;SDS011;22445;52.100;5.176;2023-06-14T08:12:40;1.77;;;1.75;;
36411;SDS011;22445;52.100;5.176;2023-06-14T08:15:06;0.00;;;0.00;;
36411;SDS011;22445;52.100;5.176;2023-06-14T08:17:32;0.00;;;0.00;;
36411;SDS011;22445;52.100;5.176;2023-06-14T08:19:58;0.00;;;0.00;;
36411;SDS011;22445;52.100;5.176;2023-06-14T08:22:24;0.00;;;0.00;;
36411;SDS011;22445;52.100;5.176;2023-06-14T08:24:50;0.22;;;0.08;;
36411;SDS011;22445;52.100;5.176;2023-06-14T08:27:18;0.00;;;0.00;;
36411;SDS011;22445;52.100;5.176;2023-06-14T08:29:43;0.00;;;0.00;;
36411;SDS011;22445;52.100;5.176;2023-06-14T08:32:09;0.22;;;0.10;;
36411;SDS011;22445;52.100;5.176;2023-06-14T08:34:35;0.22;;;0.22;;
36411;SDS011;22445;52.100;5.176;2023-06-14T08:37:01;0.00;;;0.00;;
36411;SDS011;22445;52.100;5.176;2023-06-14T08:39:27;0.00;;;0.00;;
36411;SDS011;22445;52.100;5.176;2023-06-14T08:41:52;0.00;;;0.00;;
36411;SDS011;22445;52.100;5.176;2023-06-14T08:44:18;0.00;;;0.00;;
36411;SDS011;22445;52.100;5.176;2023-06-14T08:46:43;0.40;;;0.40;;
36411;SDS011;22445;52.100;5.176;2023-06-14T08:49:12;0.00;;;0.00;;
36411;SDS011;22445;52.100;5.176;2023-06-14T08:51:38;0.00;;;0.00;;
36411;SDS011;22445;52.100;5.176;2023-06-14T08:54:06;0.38;;;0.17;;
36411;SDS011;22445;52.100;5.176;2023-06-14T08:56:32;0.00;;;0.00;;
36411;SDS011;22445;52.100;5.176;2023-06-14T08:58:59;0.10;;;0.10;;
36411;SDS011;22445;52.100;5.176;2023-06-14T09:01:33;0.00;;;0.00;;
36411;SDS011;22445;52.100;5.176;2023-06-14T09:03:59;0.00;;;0.00;;
36411;SDS011;22445;52.100;5.176;2023-06-14T09:06:25;5.07;;;0.63;;
36411;SDS011;22445;52.100;5.176;2023-06-14T09:08:54;0.00;;;0.00;;
36411;SDS011;22445;52.100;5.176;2023-06-14T09:11:22;0.00;;;0.00;;
36411;SDS011;22445;52.100;5.176;2023-06-14T09:13:48;0.00;;;0.00;;
36411;SDS011;22445;52.100;5.176;2023-06-14T09:16:14;2.22;;;0.20;;
36411;SDS011;22445;52.100;5.176;2023-06-14T09:18:40;0.00;;;0.00;;
36411;SDS011;22445;52.100;5.176;2023-06-14T09:21:09;0.00;;;0.00;;
36411;SDS011;22445;52.100;5.176;2023-06-14T09:23:42;0.00;;;0.00;;
36411;SDS011;22445;52.100;5.176;2023-06-14T09:26:12;0.00;;;0.00;;
36411;SDS011;22445;52.100;5.176;2023-06-14T09:28:58;0.00;;;0.00;;
36411;SDS011;22445;52.100;5.176;2023-06-14T09:31:23;0.00;;;0.00;;
36411;SDS011;22445;52.100;5.176;2023-06-14T09:33:49;0.10;;;0.10;;
36411;SDS011;22445;52.100;5.176;2023-06-14T09:36:18;0.00;;;0.00;;
36411;SDS011;22445;52.100;5.176;2023-06-14T09:38:52;0.00;;;0.00;;
36411;SDS011;22445;52.100;5.176;2023-06-14T09:41:31;0.00;;;0.00;;
36411;SDS011;22445;52.100;5.176;2023-06-14T09:44:05;0.03;;;0.03;;
36411;SDS011;22445;52.100;5.176;2023-06-14T09:46:32;0.32;;;0.32;;
36411;SDS011;22445;52.100;5.176;2023-06-14T09:48:58;0.30;;;0.30;;
36411;SDS011;22445;52.100;5.176;2023-06-14T09:51:24;0.10;;;0.10;;
36411;SDS011;22445;52.100;5.176;2023-06-14T09:53:50;0.00;;;0.00;;
36411;SDS011;22445;52.100;5.176;2023-06-14T09:56:22;0.00;;;0.00;;
36411;SDS011;22445;52.100;5.176;2023-06-14T09:58:52;0.03;;;0.03;;
36411;SDS011;22445;52.100;5.176;2023-06-14T10:01:20;0.20;;;0.20;;
36411;SDS011;22445;52.100;5.176;2023-06-14T10:03:49;0.00;;;0.00;;
36411;SDS011;22445;52.100;5.176;2023-06-14T10:06:16;0.00;;;0.00;;
36411;SDS011;22445;52.100;5.176;2023-06-14T10:08:41;0.00;;;0.00;;
36411;SDS011;22445;52.100;5.176;2023-06-14T10:11:07;0.15;;;0.13;;
36411;SDS011;22445;52.100;5.176;2023-06-14T10:13:33;0.00;;;0.00;;
36411;SDS011;22445;52.100;5.176;2023-06-14T10:19:32;0.10;;;0.10;;
36411;SDS011;22445;52.100;5.176;2023-06-14T10:24:50;0.30;;;0.30;;
36411;SDS011;22445;52.100;5.176;2023-06-14T10:27:15;0.30;;;0.20;;
36411;SDS011;22445;52.100;5.176;2023-06-14T10:33:25;1.60;;;1.00;;
36411;SDS011;22445;52.100;5.176;2023-06-14T10:35:30;2.85;;;1.05;;
36411;SDS011;22445;52.100;5.176;2023-06-14T10:37:55;1.33;;;1.10;;
36411;SDS011;22445;52.100;5.176;2023-06-14T10:40:31;0.00;;;0.00;;
36411;SDS011;22445;52.100;5.176;2023-06-14T10:42:58;0.00;;;0.00;;
36411;SDS011;22445;52.100;5.176;2023-06-14T10:45:24;3.08;;;0.90;;
36411;SDS011;22445;52.100;5.176;2023-06-14T10:47:49;2.95;;;1.30;;
36411;SDS011;22445;52.100;5.176;2023-06-14T10:50:17;0.00;;;0.00;;
36411;SDS011;22445;52.100;5.176;2023-06-14T10:52:44;1.25;;;0.80;;
36411;SDS011;22445;52.100;5.176;2023-06-14T10:55:17;0.00;;;0.00;;
36411;SDS011;22445;52.100;5.176;2023-06-14T11:00:29;0.00;;;0.00;;
36411;SDS011;22445;52.100;5.176;2023-06-14T11:03:07;0.10;;;0.10;;
36411;SDS011;22445;52.100;5.176;2023-06-14T11:05:55;0.20;;;0.10;;
36411;SDS011;22445;52.100;5.176;2023-06-14T11:11:25;0.00;;;0.00;;
36411;SDS011;22445;52.100;5.176;2023-06-14T11:13:57;0.00;;;0.00;;
36411;SDS011;22445;52.100;5.176;2023-06-14T11:16:26;0.00;;;0.00;;
36411;SDS011;22445;52.100;5.176;2023-06-14T11:18:53;0.00;;;0.00;;
36411;SDS011;22445;52.100;5.176;2023-06-14T11:21:18;0.00;;;0.00;;
36411;SDS011;22445;52.100;5.176;2023-06-14T11:23:50;0.00;;;0.00;;
36411;SDS011;22445;52.100;5.176;2023-06-14T11:26:24;0.70;;;0.60;;
36411;SDS011;22445;52.100;5.176;2023-06-14T11:28:56;0.00;;;0.00;;
36411;SDS011;22445;52.100;5.176;2023-06-14T11:31:25;0.00;;;0.00;;
36411;SDS011;22445;52.100;5.176;2023-06-14T11:33:55;0.00;;;0.00;;
36411;SDS011;22445;52.100;5.176;2023-06-14T11:36:22;0.10;;;0.10;;
36411;SDS011;22445;52.100;5.176;2023-06-14T11:39:00;0.00;;;0.00;;
36411;SDS011;22445;52.100;5.176;2023-06-14T11:41:32;0.00;;;0.00;;
36411;SDS011;22445;52.100;5.176;2023-06-14T11:43:59;0.00;;;0.00;;
36411;SDS011;22445;52.100;5.176;2023-06-14T11:46:26;0.00;;;0.00;;
36411;SDS011;22445;52.100;5.176;2023-06-14T11:48:51;0.00;;;0.00;;
36411;SDS011;22445;52.100;5.176;2023-06-14T11:51:17;0.98;;;0.13;;
36411;SDS011;22445;52.100;5.176;2023-06-14T11:53:44;0.00;;;0.00;;
36411;SDS011;22445;52.100;5.176;2023-06-14T11:56:09;0.00;;;0.00;;
36411;SDS011;22445;52.100;5.176;2023-06-14T11:58:35;0.10;;;0.10;;
36411;SDS011;22445;52.100;5.176;2023-06-14T12:01:02;0.00;;;0.00;;
36411;SDS011;22445;52.100;5.176;2023-06-14T12:03:28;0.10;;;0.10;;
36411;SDS011;22445;52.100;5.176;2023-06-14T12:06:06;0.10;;;0.10;;
36411;SDS011;22445;52.100;5.176;2023-06-14T12:08:33;0.00;;;0.00;;
36411;SDS011;22445;52.100;5.176;2023-06-14T12:11:06;0.00;;;0.00;;
36411;SDS011;22445;52.100;5.176;2023-06-14T12:13:39;0.10;;;0.10;;
36411;SDS011;22445;52.100;5.176;2023-06-14T12:16:08;0.10;;;0.10;;
36411;SDS011;22445;52.100;5.176;2023-06-14T12:18:35;0.13;;;0.13;;
36411;SDS011;22445;52.100;5.176;2023-06-14T12:21:01;0.08;;;0.08;;
36411;SDS011;22445;52.100;5.176;2023-06-14T12:23:42;0.28;;;0.28;;
36411;SDS011;22445;52.100;5.176;2023-06-14T12:26:12;0.28;;;0.20;;
36411;SDS011;22445;52.100;5.176;2023-06-14T12:28:41;0.00;;;0.00;;
36411;SDS011;22445;52.100;5.176;2023-06-14T12:31:11;0.10;;;0.10;;
36411;SDS011;22445;52.100;5.176;2023-06-14T12:33:37;0.00;;;0.00;;
36411;SDS011;22445;52.100;5.176;2023-06-14T12:36:07;0.00;;;0.00;;
36411;SDS011;22445;52.100;5.176;2023-06-14T12:38:33;0.00;;;0.00;;
36411;SDS011;22445;52.100;5.176;2023-06-14T12:41:00;0.43;;;0.43;;
36411;SDS011;22445;52.100;5.176;2023-06-14T12:43:26;0.00;;;0.00;;
36411;SDS011;22445;52.100;5.176;2023-06-14T12:45:52;0.10;;;0.10;;
36411;SDS011;22445;52.100;5.176;2023-06-14T12:48:18;0.03;;;0.03;;
36411;SDS011;22445;52.100;5.176;2023-06-14T12:50:44;0.00;;;0.00;;
36411;SDS011;22445;52.100;5.176;2023-06-14T12:53:10;0.20;;;0.20;;
36411;SDS011;22445;52.100;5.176;2023-06-14T12:55:36;1.90;;;0.57;;
36411;SDS011;22445;52.100;5.176;2023-06-14T12:58:01;0.05;;;0.05;;
36411;SDS011;22445;52.100;5.176;2023-06-14T13:00:27;0.00;;;0.00;;
36411;SDS011;22445;52.100;5.176;2023-06-14T13:02:54;0.10;;;0.10;;
36411;SDS011;22445;52.100;5.176;2023-06-14T13:05:20;1.85;;;0.47;;
36411;SDS011;22445;52.100;5.176;2023-06-14T13:07:45;0.00;;;0.00;;
36411;SDS011;22445;52.100;5.176;2023-06-14T13:10:11;0.00;;;0.00;;
36411;SDS011;22445;52.100;5.176;2023-06-14T13:12:37;0.00;;;0.00;;
36411;SDS011;22445;52.100;5.176;2023-06-14T13:15:02;0.00;;;0.00;;
36411;SDS011;22445;52.100;5.176;2023-06-14T13:17:28;0.00;;;0.00;;
36411;SDS011;22445;52.100;5.176;2023-06-14T13:19:54;0.08;;;0.08;;
36411;SDS011;22445;52.100;5.176;2023-06-14T13:22:19;0.00;;;0.00;;
36411;SDS011;22445;52.100;5.176;2023-06-14T13:24:45;0.00;;;0.00;;
36411;SDS011;22445;52.100;5.176;2023-06-14T13:27:11;0.00;;;0.00;;
36411;SDS011;22445;52.100;5.176;2023-06-14T13:29:39;0.00;;;0.00;;
36411;SDS011;22445;52.100;5.176;2023-06-14T13:32:05;0.20;;;0.10;;
36411;SDS011;22445;52.100;5.176;2023-06-14T13:34:31;0.20;;;0.20;;
36411;SDS011;22445;52.100;5.176;2023-06-14T13:36:56;0.10;;;0.10;;
36411;SDS011;22445;52.100;5.176;2023-06-14T13:39:24;0.00;;;0.00;;
36411;SDS011;22445;52.100;5.176;2023-06-14T13:41:50;2.63;;;1.23;;
36411;SDS011;22445;52.100;5.176;2023-06-14T13:44:16;2.67;;;1.00;;
36411;SDS011;22445;52.100;5.176;2023-06-14T13:46:44;0.77;;;0.73;;
36411;SDS011;22445;52.100;5.176;2023-06-14T13:49:10;2.78;;;0.90;;
36411;SDS011;22445;52.100;5.176;2023-06-14T13:51:35;1.30;;;1.20;;
36411;SDS011;22445;52.100;5.176;2023-06-14T13:54:01;2.70;;;1.15;;
36411;SDS011;22445;52.100;5.176;2023-06-14T13:56:27;2.42;;;1.20;;
36411;SDS011;22445;52.100;5.176;2023-06-14T13:58:52;5.20;;;1.33;;
36411;SDS011;22445;52.100;5.176;2023-06-14T14:01:18;1.13;;;1.00;;
36411;SDS011;22445;52.100;5.176;2023-06-14T14:03:48;4.88;;;1.38;;
36411;SDS011;22445;52.100;5.176;2023-06-14T14:06:15;2.67;;;1.17;;
36411;SDS011;22445;52.100;5.176;2023-06-14T14:08:40;1.58;;;0.90;;
36411;SDS011;22445;52.100;5.176;2023-06-14T14:11:07;1.90;;;0.82;;
36411;SDS011;22445;52.100;5.176;2023-06-14T14:13:33;2.92;;;0.95;;
36411;SDS011;22445;52.100;5.176;2023-06-14T14:15:58;3.25;;;1.23;;
36411;SDS011;22445;52.100;5.176;2023-06-14T14:18:24;2.70;;;0.80;;
36411;SDS011;22445;52.100;5.176;2023-06-14T14:20:50;3.47;;;1.10;;
36411;SDS011;22445;52.100;5.176;2023-06-14T14:23:16;4.10;;;1.20;;
36411;SDS011;22445;52.100;5.176;2023-06-14T14:25:42;1.98;;;0.90;;
36411;SDS011;22445;52.100;5.176;2023-06-14T14:28:07;2.30;;;0.95;;
36411;SDS011;22445;52.100;5.176;2023-06-14T14:30:33;5.63;;;1.30;;
36411;SDS011;22445;52.100;5.176;2023-06-14T14:32:59;1.02;;;0.90;;
36411;SDS011;22445;52.100;5.176;2023-06-14T14:35:25;4.78;;;0.80;;
36411;SDS011;22445;52.100;5.176;2023-06-14T14:37:55;2.28;;;0.98;;
36411;SDS011;22445;52.100;5.176;2023-06-14T14:40:21;1.00;;;0.90;;
36411;SDS011;22445;52.100;5.176;2023-06-14T14:42:46;2.50;;;0.98;;
36411;SDS011;22445;52.100;5.176;2023-06-14T14:45:12;3.03;;;1.20;;
36411;SDS011;22445;52.100;5.176;2023-06-14T14:47:38;1.45;;;1.10;;
36411;SDS011;22445;52.100;5.176;2023-06-14T14:50:04;1.20;;;1.05;;
36411;SDS011;22445;52.100;5.176;2023-06-14T14:52:34;1.38;;;0.85;;
36411;SDS011;22445;52.100;5.176;2023-06-14T14:55:00;1.33;;;0.90;;
36411;SDS011;22445;52.100;5.176;2023-06-14T14:57:26;4.75;;;0.70;;
36411;SDS011;22445;52.100;5.176;2023-06-14T14:59:52;0.93;;;0.90;;
36411;SDS011;22445;52.100;5.176;2023-06-14T15:02:17;1.02;;;0.73;;
36411;SDS011;22445;52.100;5.176;2023-06-14T15:04:44;4.35;;;1.38;;
36411;SDS011;22445;52.100;5.176;2023-06-14T15:07:10;3.53;;;0.85;;